createdAt,value
2023-02-19T00:01:35.968Z,3.86
2023-02-19T00:04:08.449Z,3.78
2023-02-19T00:06:36.103Z,3.71
2023-02-19T00:09:03.136Z,3.71
2023-02-19T00:11:31.674Z,3.69
2023-02-19T00:13:59.795Z,3.70
2023-02-19T00:16:38.173Z,3.71
2023-02-19T00:19:07.553Z,3.67
2023-02-19T00:21:34.355Z,3.67
2023-02-19T00:24:03.442Z,3.66
2023-02-19T00:26:30.173Z,3.64
2023-02-19T00:28:57.990Z,3.63
2023-02-19T00:31:33.592Z,3.62
2023-02-19T00:34:05.437Z,3.66
2023-02-19T00:36:33.878Z,3.65
2023-02-19T00:39:00.314Z,3.58
2023-02-19T00:41:26.654Z,3.61
2023-02-19T00:43:56.125Z,3.58
2023-02-19T00:46:27.239Z,3.53
2023-02-19T00:48:54.298Z,3.49
2023-02-19T00:51:22.740Z,3.46
2023-02-19T00:53:49.480Z,3.46
2023-02-19T00:56:15.947Z,3.51
2023-02-19T00:58:42.330Z,3.50
2023-02-19T01:01:10.259Z,3.51
2023-02-19T01:03:38.497Z,3.46
2023-02-19T01:06:07.039Z,3.49
2023-02-19T01:08:34.113Z,3.45
2023-02-19T01:11:01.449Z,3.45
2023-02-19T01:13:30.920Z,3.48
2023-02-19T01:16:06.409Z,3.56
2023-02-19T01:18:33.513Z,3.56
2023-02-19T01:21:00.226Z,3.56
2023-02-19T01:23:26.647Z,3.52
2023-02-19T01:25:53.009Z,3.54
2023-02-19T01:28:19.419Z,3.50
2023-02-19T01:30:45.790Z,3.47
2023-02-19T01:33:12.120Z,3.53
2023-02-19T01:35:39.473Z,3.54
2023-02-19T01:38:08.210Z,3.49
2023-02-19T01:40:34.929Z,3.53
2023-02-19T01:43:01.333Z,3.55
2023-02-19T01:45:32.122Z,3.59
2023-02-19T01:48:10.081Z,3.63
2023-02-19T01:50:45.759Z,3.68
2023-02-19T01:53:14.367Z,3.59
2023-02-19T01:55:41.109Z,3.57
2023-02-19T01:58:09.074Z,3.59
2023-02-19T02:00:36.829Z,3.57
2023-02-19T02:03:04.492Z,3.53
2023-02-19T02:05:55.778Z,3.51
2023-02-19T02:08:42.591Z,3.48
2023-02-19T02:11:09.447Z,3.48
2023-02-19T02:13:38.464Z,3.47
2023-02-19T02:16:20.297Z,3.45
2023-02-19T02:18:59.686Z,3.41
2023-02-19T02:21:51.827Z,3.30
2023-02-19T02:24:46.497Z,3.25
2023-02-19T02:27:18.113Z,3.27
2023-02-19T02:29:59.081Z,3.29
2023-02-19T02:32:29.245Z,3.31
2023-02-19T02:35:05.428Z,3.25
2023-02-19T02:37:35.615Z,3.23
2023-02-19T02:40:04.132Z,3.20
2023-02-19T02:42:30.541Z,3.16
2023-02-19T02:45:17.342Z,3.15
2023-02-19T02:47:56.912Z,3.14
2023-02-19T02:50:34.143Z,3.16
2023-02-19T02:53:24.155Z,3.09
2023-02-19T02:55:53.217Z,3.08
2023-02-19T02:58:22.248Z,3.09
2023-02-19T03:01:13.567Z,3.10
2023-02-19T03:03:43.344Z,3.06
2023-02-19T03:06:14.544Z,3.08
2023-02-19T03:09:00.124Z,3.05
2023-02-19T03:12:04.995Z,3.04
2023-02-19T03:14:58.742Z,3.00
2023-02-19T03:17:50.971Z,2.98
2023-02-19T03:20:21.174Z,3.05
2023-02-19T03:22:50.132Z,3.08
2023-02-19T03:25:44.131Z,3.10
2023-02-19T03:28:13.595Z,3.07
2023-02-19T03:30:44.722Z,3.04
2023-02-19T03:33:15.423Z,3.07
2023-02-19T03:35:48.596Z,3.05
2023-02-19T03:38:26.132Z,3.05
2023-02-19T03:41:01.378Z,3.01
2023-02-19T03:43:40.367Z,2.97
2023-02-19T03:46:13.284Z,3.01
2023-02-19T03:49:09.107Z,3.07
2023-02-19T03:51:45.007Z,3.07
2023-02-19T03:54:20.622Z,3.00
2023-02-19T03:57:02.371Z,3.07
2023-02-19T03:59:56.917Z,3.08
2023-02-19T04:02:35.453Z,3.03
2023-02-19T04:05:13.207Z,3.04
2023-02-19T04:07:46.041Z,3.02
2023-02-19T04:10:13.243Z,2.95
2023-02-19T04:12:45.668Z,2.95
2023-02-19T04:15:17.684Z,2.90
2023-02-19T04:17:49.893Z,2.90
2023-02-19T04:20:16.573Z,3.03
2023-02-19T04:22:43.711Z,3.05
2023-02-19T04:25:10.130Z,3.04
2023-02-19T04:27:39.674Z,3.03
2023-02-19T04:30:08.586Z,2.96
2023-02-19T04:32:34.967Z,3.03
2023-02-19T04:35:01.347Z,2.96
2023-02-19T04:37:27.729Z,2.97
2023-02-19T04:39:54.262Z,2.95
2023-02-19T04:42:20.684Z,2.87
2023-02-19T04:44:47.037Z,2.75
2023-02-19T04:47:13.385Z,2.72
2023-02-19T04:49:39.759Z,2.74
2023-02-19T04:52:06.105Z,2.81
2023-02-19T04:54:32.449Z,2.83
2023-02-19T04:56:58.823Z,2.83
2023-02-19T04:59:25.250Z,2.84
2023-02-19T05:01:51.744Z,2.79
2023-02-19T05:04:18.192Z,2.73
2023-02-19T05:06:44.674Z,2.74
2023-02-19T05:09:11.018Z,2.76
2023-02-19T05:11:37.492Z,2.71
2023-02-19T05:14:04.045Z,2.60
2023-02-19T05:16:30.444Z,2.66
2023-02-19T05:18:56.804Z,2.71
2023-02-19T05:21:23.210Z,2.67
2023-02-19T05:23:49.540Z,2.66
2023-02-19T05:26:21.340Z,2.62
2023-02-19T05:28:50.881Z,2.61
2023-02-19T05:31:17.568Z,2.59
2023-02-19T05:33:44.288Z,2.55
2023-02-19T05:36:13.258Z,2.52
2023-02-19T05:38:40.848Z,2.49
2023-02-19T05:41:21.481Z,2.45
2023-02-19T05:43:49.139Z,2.44
2023-02-19T05:46:19.664Z,2.40
2023-02-19T05:48:47.023Z,2.43
2023-02-19T05:51:17.202Z,2.39
2023-02-19T05:53:44.885Z,2.37
2023-02-19T05:56:36.098Z,2.28
2023-02-19T05:59:07.783Z,2.29
2023-02-19T06:01:35.304Z,2.29
2023-02-19T06:04:01.637Z,2.28
2023-02-19T06:06:28.149Z,2.31
2023-02-19T06:08:55.105Z,2.17
2023-02-19T06:11:21.529Z,2.16
2023-02-19T06:13:50.027Z,2.10
2023-02-19T06:16:17.944Z,2.09
2023-02-19T06:18:45.209Z,2.16
2023-02-19T06:21:12.769Z,2.09
2023-02-19T06:23:39.792Z,2.11
2023-02-19T06:26:15.373Z,2.08
2023-02-19T06:28:42.290Z,2.09
2023-02-19T06:31:10.199Z,2.09
2023-02-19T06:33:40.397Z,2.20
2023-02-19T06:36:10.492Z,2.18
2023-02-19T06:38:36.885Z,2.20
2023-02-19T06:41:05.263Z,2.19
2023-02-19T06:43:33.233Z,2.18
2023-02-19T06:46:03.992Z,2.20
2023-02-19T06:48:31.908Z,2.21
2023-02-19T06:50:58.955Z,2.22
2023-02-19T06:53:25.747Z,2.16
2023-02-19T06:55:57.029Z,2.04
2023-02-19T06:58:23.387Z,1.94
2023-02-19T07:00:49.879Z,1.99
2023-02-19T07:03:16.255Z,2.03
2023-02-19T07:05:44.186Z,2.08
2023-02-19T07:08:10.582Z,2.01
2023-02-19T07:10:37.007Z,1.98
2023-02-19T07:13:03.380Z,1.98
2023-02-19T07:15:30.119Z,2.14
2023-02-19T07:17:56.445Z,2.21
2023-02-19T07:20:22.814Z,2.26
2023-02-19T07:22:49.147Z,2.23
2023-02-19T07:25:15.553Z,2.23
2023-02-19T07:27:41.917Z,2.29
2023-02-19T07:30:08.948Z,2.27
2023-02-19T07:32:35.354Z,2.30
2023-02-19T07:35:01.718Z,2.38
2023-02-19T07:37:28.349Z,2.39
2023-02-19T07:39:54.687Z,2.41
2023-02-19T07:42:21.057Z,2.39
2023-02-19T07:44:47.400Z,2.42
2023-02-19T07:47:13.863Z,2.40
2023-02-19T07:49:40.184Z,2.37
2023-02-19T07:52:06.555Z,2.39
2023-02-19T07:54:32.926Z,2.38
2023-02-19T07:56:59.721Z,2.34
2023-02-19T07:59:26.075Z,2.28
2023-02-19T08:02:11.070Z,2.28
2023-02-19T08:04:37.559Z,2.28
2023-02-19T08:07:05.370Z,2.27
2023-02-19T08:09:32.138Z,2.25
2023-02-19T08:12:17.181Z,2.24
2023-02-19T08:14:43.708Z,2.27
2023-02-19T08:17:10.122Z,2.31
2023-02-19T08:19:36.466Z,2.45
2023-02-19T08:22:02.920Z,2.55
2023-02-19T08:24:29.341Z,2.61
2023-02-19T08:26:55.700Z,2.90
2023-02-19T08:29:22.093Z,3.13
2023-02-19T08:31:48.634Z,3.17
2023-02-19T08:34:14.994Z,3.19
2023-02-19T08:36:41.361Z,3.13
2023-02-19T08:39:07.702Z,3.26
2023-02-19T08:41:34.058Z,3.26
2023-02-19T08:44:00.414Z,3.33
2023-02-19T08:46:26.821Z,3.35
2023-02-19T08:48:53.265Z,3.43
2023-02-19T08:51:19.618Z,3.51
2023-02-19T08:53:46.028Z,3.59
2023-02-19T08:56:15.107Z,3.72
2023-02-19T08:58:42.163Z,3.75
2023-02-19T09:01:11.786Z,3.86
2023-02-19T09:03:38.466Z,3.97
2023-02-19T09:06:05.062Z,4.00
2023-02-19T09:08:31.380Z,4.01
2023-02-19T09:10:59.648Z,4.02
2023-02-19T09:13:26.018Z,4.02
2023-02-19T09:15:52.402Z,4.00
2023-02-19T09:18:18.847Z,4.10
2023-02-19T09:20:45.216Z,4.02
2023-02-19T09:23:11.660Z,4.04
2023-02-19T09:25:37.988Z,4.10
2023-02-19T09:28:04.667Z,4.11
2023-02-19T09:30:31.025Z,4.10
2023-02-19T09:32:57.433Z,4.09
2023-02-19T09:35:23.896Z,4.13
2023-02-19T09:37:50.293Z,4.17
2023-02-19T09:40:21.477Z,4.21
2023-02-19T09:42:50.159Z,4.19
2023-02-19T09:45:23.267Z,4.19
2023-02-19T09:47:54.356Z,4.21
2023-02-19T09:50:24.847Z,4.22
2023-02-19T09:52:58.721Z,4.27
2023-02-19T09:55:36.613Z,4.40
2023-02-19T09:58:15.641Z,4.44
2023-02-19T10:00:42.523Z,4.45
2023-02-19T10:03:20.500Z,4.52
2023-02-19T10:05:47.917Z,4.58
2023-02-19T10:08:19.925Z,4.53
2023-02-19T10:10:46.308Z,4.58
2023-02-19T10:13:23.508Z,4.66
2023-02-19T10:15:54.990Z,4.83
2023-02-19T10:18:28.272Z,5.02
2023-02-19T10:20:56.625Z,5.19
2023-02-19T10:23:24.614Z,5.31
2023-02-19T10:25:59.292Z,5.46
2023-02-19T10:28:35.032Z,5.49
2023-02-19T10:31:04.396Z,5.54
2023-02-19T10:33:30.848Z,5.67
2023-02-19T10:36:02.077Z,5.70
2023-02-19T10:38:32.755Z,5.74
2023-02-19T10:41:12.744Z,5.73
2023-02-19T10:43:43.660Z,5.83
2023-02-19T10:46:22.432Z,6.00
2023-02-19T10:48:58.368Z,6.07
2023-02-19T10:51:33.221Z,6.17
2023-02-19T10:54:30.149Z,6.27
2023-02-19T10:57:14.709Z,6.07
2023-02-19T10:59:59.084Z,6.05
2023-02-19T11:02:26.620Z,6.11
2023-02-19T11:05:03.685Z,6.00
2023-02-19T11:07:30.661Z,5.97
2023-02-19T11:09:58.940Z,6.00
2023-02-19T11:12:28.365Z,6.01
2023-02-19T11:14:55.332Z,6.13
2023-02-19T11:17:27.874Z,6.32
2023-02-19T11:19:58.328Z,6.36
2023-02-19T11:22:38.750Z,6.46
2023-02-19T11:25:17.932Z,6.59
2023-02-19T11:28:23.577Z,6.75
2023-02-19T11:30:50.101Z,6.92
2023-02-19T11:33:16.435Z,6.76
2023-02-19T11:35:44.130Z,6.66
2023-02-19T11:38:12.499Z,6.69
2023-02-19T11:41:05.028Z,6.74
2023-02-19T11:43:47.566Z,6.70
2023-02-19T11:46:25.376Z,6.82
2023-02-19T11:49:17.490Z,7.02
2023-02-19T11:52:14.331Z,7.04
2023-02-19T11:54:50.897Z,6.94
2023-02-19T11:57:33.750Z,6.79
2023-02-19T12:00:21.157Z,6.68
2023-02-19T12:03:36.603Z,6.61
2023-02-19T12:06:20.823Z,6.91
2023-02-19T12:09:19.013Z,7.29
2023-02-19T12:12:09.938Z,7.51
2023-02-19T12:14:52.971Z,7.29
2023-02-19T12:17:36.402Z,7.09
2023-02-19T12:20:14.280Z,7.14
2023-02-19T12:22:54.794Z,7.05
2023-02-19T12:25:41.906Z,6.89
2023-02-19T12:28:29.302Z,7.12
2023-02-19T12:31:01.266Z,7.65
2023-02-19T12:34:15.355Z,7.53
2023-02-19T12:37:08.874Z,7.30
2023-02-19T12:39:52.265Z,7.15
2023-02-19T12:42:51.141Z,7.48
2023-02-19T12:45:20.266Z,7.85
2023-02-19T12:47:58.732Z,7.92
2023-02-19T12:50:27.023Z,8.12
2023-02-19T12:53:02.655Z,7.99
2023-02-19T12:55:34.481Z,8.11
2023-02-19T12:58:04.871Z,8.42
2023-02-19T13:00:43.317Z,8.76
2023-02-19T13:03:20.765Z,8.53
2023-02-19T13:05:56.084Z,8.63
2023-02-19T13:08:37.772Z,8.70
2023-02-19T13:11:30.034Z,8.82
2023-02-19T13:14:17.965Z,8.86
2023-02-19T13:16:50.520Z,8.85
2023-02-19T13:19:16.971Z,8.88
2023-02-19T13:22:06.613Z,8.89
2023-02-19T13:24:36.495Z,8.84
2023-02-19T13:27:08.526Z,8.97
2023-02-19T13:30:06.641Z,8.98
2023-02-19T13:32:48.198Z,8.96
2023-02-19T13:35:14.499Z,8.98
2023-02-19T13:37:41.517Z,9.17
2023-02-19T13:40:30.693Z,9.11
2023-02-19T13:43:00.438Z,8.96
2023-02-19T13:45:38.440Z,8.85
2023-02-19T13:48:24.413Z,8.47
2023-02-19T13:51:17.002Z,8.47
2023-02-19T13:53:44.581Z,8.46
2023-02-19T13:56:29.897Z,8.48
2023-02-19T13:59:02.289Z,8.44
2023-02-19T14:01:51.349Z,8.46
2023-02-19T14:04:47.410Z,8.46
2023-02-19T14:07:13.691Z,8.48
2023-02-19T14:09:40.488Z,8.43
2023-02-19T14:12:15.483Z,8.37
2023-02-19T14:14:47.400Z,8.31
2023-02-19T14:17:43.106Z,8.27
2023-02-19T14:20:09.418Z,8.14
2023-02-19T14:22:45.140Z,8.18
2023-02-19T14:25:52.700Z,8.13
2023-02-19T14:28:22.917Z,8.01
2023-02-19T14:31:07.458Z,7.82
2023-02-19T14:33:37.688Z,7.48
2023-02-19T14:36:48.996Z,7.26
2023-02-19T14:39:32.776Z,7.19
2023-02-19T14:42:04.457Z,7.20
2023-02-19T14:44:42.328Z,7.24
2023-02-19T14:47:14.996Z,7.23
2023-02-19T14:49:51.516Z,7.28
2023-02-19T14:52:36.534Z,7.32
2023-02-19T14:55:08.925Z,7.37
2023-02-19T14:57:41.484Z,7.30
2023-02-19T15:00:24.610Z,7.20
2023-02-19T15:02:52.484Z,7.03
2023-02-19T15:05:24.272Z,7.01
2023-02-19T15:07:53.285Z,6.90
2023-02-19T15:10:19.890Z,6.78
2023-02-19T15:12:50.519Z,6.71
2023-02-19T15:15:22.049Z,6.77
2023-02-19T15:17:49.859Z,6.88
2023-02-19T15:20:23.584Z,6.91
2023-02-19T15:22:50.234Z,6.95
2023-02-19T15:25:19.946Z,6.89
2023-02-19T15:27:46.653Z,6.83
2023-02-19T15:30:25.001Z,6.81
2023-02-19T15:32:55.609Z,6.78
2023-02-19T15:35:24.324Z,6.77
2023-02-19T15:37:51.986Z,6.76
2023-02-19T15:40:20.030Z,6.72
2023-02-19T15:42:47.407Z,6.76
2023-02-19T15:45:23.016Z,6.53
2023-02-19T15:47:54.690Z,6.53
2023-02-19T15:50:29.974Z,6.51
2023-02-19T15:53:07.076Z,6.42
2023-02-19T15:55:43.627Z,6.32
2023-02-19T15:58:24.180Z,6.28
2023-02-19T16:01:15.488Z,6.22
2023-02-19T16:03:42.156Z,6.25
2023-02-19T16:06:11.479Z,6.20
2023-02-19T16:08:39.707Z,6.12
2023-02-19T16:11:34.068Z,6.15
2023-02-19T16:14:37.026Z,6.10
2023-02-19T16:17:16.466Z,6.06
2023-02-19T16:19:42.784Z,6.04
2023-02-19T16:22:15.958Z,6.01
2023-02-19T16:24:45.564Z,5.89
2023-02-19T16:27:14.101Z,5.87
2023-02-19T16:29:40.975Z,5.81
2023-02-19T16:32:15.512Z,5.76
2023-02-19T16:34:47.661Z,5.70
2023-02-19T16:37:39.108Z,5.61
2023-02-19T16:40:08.438Z,5.60
2023-02-19T16:42:36.302Z,5.61
2023-02-19T16:45:02.763Z,5.63
2023-02-19T16:47:34.861Z,5.57
2023-02-19T16:50:03.299Z,5.45
2023-02-19T16:52:30.304Z,5.41
2023-02-19T16:54:56.734Z,5.37
2023-02-19T16:57:23.208Z,5.25
2023-02-19T16:59:49.596Z,5.27
2023-02-19T17:02:20.864Z,5.28
2023-02-19T17:04:48.604Z,5.20
2023-02-19T17:07:16.820Z,5.23
2023-02-19T17:09:43.497Z,5.23
2023-02-19T17:12:12.020Z,5.19
2023-02-19T17:14:38.702Z,5.26
2023-02-19T17:17:05.420Z,5.30
2023-02-19T17:19:31.940Z,5.30
2023-02-19T17:21:58.869Z,5.24
2023-02-19T17:24:25.273Z,5.28
2023-02-19T17:26:51.606Z,5.26
2023-02-19T17:29:18.572Z,5.33
2023-02-19T17:31:45.167Z,5.36
2023-02-19T17:34:11.644Z,5.30
2023-02-19T17:36:38.012Z,5.32
2023-02-19T17:39:07.157Z,5.31
2023-02-19T17:41:33.527Z,5.29
2023-02-19T17:43:59.862Z,5.25
2023-02-19T17:46:27.105Z,5.20
2023-02-19T17:48:54.079Z,5.16
2023-02-19T17:51:20.835Z,5.12
2023-02-19T17:53:47.402Z,5.12
2023-02-19T17:56:19.578Z,5.14
2023-02-19T17:58:46.263Z,5.11
2023-02-19T18:01:13.171Z,5.09
2023-02-19T18:03:39.731Z,5.02
2023-02-19T18:06:06.540Z,5.03
2023-02-19T18:08:32.877Z,5.07
2023-02-19T18:10:59.443Z,5.07
2023-02-19T18:13:25.868Z,5.07
2023-02-19T18:15:53.522Z,5.08
2023-02-19T18:18:20.628Z,5.08
2023-02-19T18:20:47.041Z,5.08
2023-02-19T18:23:13.370Z,5.03
2023-02-19T18:25:39.742Z,5.04
2023-02-19T18:28:06.352Z,5.06
2023-02-19T18:30:32.805Z,5.03
2023-02-19T18:32:59.292Z,5.01
2023-02-19T18:35:25.712Z,5.02
2023-02-19T18:37:53.218Z,5.01
2023-02-19T18:40:25.323Z,4.93
2023-02-19T18:42:51.915Z,4.99
2023-02-19T18:45:18.323Z,5.03
2023-02-19T18:47:48.645Z,5.04
2023-02-19T18:50:16.442Z,5.02
2023-02-19T18:52:42.787Z,4.99
2023-02-19T18:55:11.150Z,4.90
2023-02-19T18:57:37.687Z,4.91
2023-02-19T19:00:06.416Z,4.90
2023-02-19T19:02:47.039Z,4.91
2023-02-19T19:05:23.445Z,4.90
2023-02-19T19:07:51.770Z,4.85
2023-02-19T19:10:19.066Z,4.81
2023-02-19T19:12:45.437Z,4.72
2023-02-19T19:15:11.806Z,4.67
2023-02-19T19:17:39.033Z,4.65
2023-02-19T19:20:06.151Z,4.62
2023-02-19T19:22:32.584Z,4.57
2023-02-19T19:24:58.908Z,4.52
2023-02-19T19:27:25.274Z,4.53
2023-02-19T19:29:51.606Z,4.58
2023-02-19T19:32:18.032Z,4.51
2023-02-19T19:34:44.809Z,4.44
2023-02-19T19:37:12.304Z,4.39
2023-02-19T19:39:38.693Z,4.35
2023-02-19T19:42:05.185Z,4.29
2023-02-19T19:44:31.520Z,4.25
2023-02-19T19:46:58.044Z,4.24
2023-02-19T19:49:24.475Z,4.27
2023-02-19T19:51:50.882Z,4.26
2023-02-19T19:54:17.213Z,4.22
2023-02-19T19:56:46.750Z,4.20
2023-02-19T19:59:15.337Z,4.17
2023-02-19T20:01:50.060Z,4.10
2023-02-19T20:04:17.473Z,4.09
2023-02-19T20:06:43.962Z,4.10
2023-02-19T20:09:10.319Z,4.02
2023-02-19T20:11:43.871Z,3.97
2023-02-19T20:14:11.118Z,3.94
2023-02-19T20:16:37.646Z,3.95
2023-02-19T20:19:04.717Z,3.96
2023-02-19T20:21:31.080Z,3.92
2023-02-19T20:23:57.412Z,3.87
2023-02-19T20:26:25.808Z,3.83
2023-02-19T20:28:53.077Z,3.84
2023-02-19T20:31:20.089Z,3.82
2023-02-19T20:33:48.238Z,3.81
2023-02-19T20:36:14.823Z,3.77
2023-02-19T20:38:43.431Z,3.78
2023-02-19T20:41:11.086Z,3.75
2023-02-19T20:43:37.680Z,3.73
2023-02-19T20:46:04.198Z,3.70
2023-02-19T20:48:30.573Z,3.74
2023-02-19T20:50:59.537Z,3.71
2023-02-19T20:53:27.175Z,3.68
2023-02-19T20:55:53.598Z,3.66
2023-02-19T20:58:21.103Z,3.70
2023-02-19T21:00:47.751Z,3.66
2023-02-19T21:03:14.517Z,3.69
2023-02-19T21:05:42.683Z,3.68
2023-02-19T21:08:10.387Z,3.66
2023-02-19T21:10:36.751Z,3.62
2023-02-19T21:13:03.143Z,3.63
2023-02-19T21:15:29.516Z,3.65
2023-02-19T21:17:55.846Z,3.73
2023-02-19T21:20:22.206Z,3.72
2023-02-19T21:22:48.691Z,3.72
2023-02-19T21:25:15.070Z,3.79
2023-02-19T21:27:41.454Z,3.77
2023-02-19T21:30:08.146Z,3.75
2023-02-19T21:32:34.557Z,3.72
2023-02-19T21:35:00.944Z,3.75
2023-02-19T21:37:27.507Z,3.77
2023-02-19T21:39:54.749Z,3.76
2023-02-19T21:42:21.211Z,3.79
2023-02-19T21:44:47.876Z,3.77
2023-02-19T21:47:14.234Z,3.80
2023-02-19T21:49:41.777Z,3.81
2023-02-19T21:52:08.462Z,3.83
2023-02-19T21:54:34.794Z,3.77
2023-02-19T21:57:03.307Z,3.75
2023-02-19T21:59:29.648Z,3.78
2023-02-19T22:01:57.097Z,3.77
2023-02-19T22:04:27.260Z,3.76
2023-02-19T22:06:56.930Z,3.76
2023-02-19T22:09:23.512Z,3.73
2023-02-19T22:11:50.105Z,3.75
2023-02-19T22:14:16.561Z,3.76
2023-02-19T22:16:43.273Z,3.76
2023-02-19T22:19:11.899Z,3.79
2023-02-19T22:21:43.199Z,3.77
2023-02-19T22:24:18.366Z,3.75
2023-02-19T22:26:45.633Z,3.73
2023-02-19T22:29:14.439Z,3.78
2023-02-19T22:31:41.413Z,3.76
2023-02-19T22:34:07.889Z,3.73
2023-02-19T22:36:37.185Z,3.74
2023-02-19T22:39:05.997Z,3.76
2023-02-19T22:41:32.920Z,3.78
2023-02-19T22:43:59.909Z,3.82
2023-02-19T22:46:29.273Z,3.81
2023-02-19T22:48:55.936Z,3.85
2023-02-19T22:51:23.712Z,3.84
2023-02-19T22:53:52.561Z,3.90
2023-02-19T22:56:20.951Z,3.92
2023-02-19T22:58:47.337Z,3.89
2023-02-19T23:01:14.758Z,3.93
2023-02-19T23:03:47.071Z,3.94
2023-02-19T23:06:14.141Z,3.93
2023-02-19T23:08:42.335Z,4.01
2023-02-19T23:11:09.857Z,3.97
2023-02-19T23:13:36.216Z,3.99
2023-02-19T23:16:04.561Z,4.06
2023-02-19T23:18:30.973Z,4.01
2023-02-19T23:20:57.331Z,4.04
2023-02-19T23:23:23.730Z,4.04
2023-02-19T23:25:50.071Z,4.12
2023-02-19T23:28:16.716Z,4.09
2023-02-19T23:30:43.156Z,4.12
2023-02-19T23:33:09.545Z,4.13
2023-02-19T23:35:35.931Z,4.17
2023-02-19T23:38:02.309Z,4.16
2023-02-19T23:40:28.642Z,4.13
2023-02-19T23:42:56.720Z,4.10
2023-02-19T23:45:23.385Z,4.09
2023-02-19T23:47:49.796Z,4.07
2023-02-19T23:50:16.616Z,4.14
2023-02-19T23:52:43.106Z,4.12
2023-02-19T23:55:09.486Z,4.12
2023-02-19T23:57:35.866Z,4.13
